createdAt,value
2023-04-10T00:00:16.859Z,109.00
2023-04-10T00:01:17.684Z,109.00
2023-04-10T00:02:18.507Z,109.00
2023-04-10T00:03:19.351Z,109.00
2023-04-10T00:04:19.434Z,109.00
2023-04-10T00:05:19.553Z,109.00
2023-04-10T00:06:19.526Z,109.00
2023-04-10T00:07:20.227Z,109.00
2023-04-10T00:08:20.986Z,109.00
2023-04-10T00:08:31.710Z,109.00
2023-04-10T00:09:32.425Z,109.00
2023-04-10T00:10:33.319Z,109.00
2023-04-10T00:11:34.042Z,109.00
2023-04-10T00:12:34.817Z,109.00
2023-04-10T00:13:35.561Z,109.00
2023-04-10T00:14:36.280Z,109.00
2023-04-10T00:15:37.111Z,109.00
2023-04-10T00:16:38.031Z,109.00
2023-04-10T00:17:38.874Z,109.00
2023-04-10T00:18:39.544Z,109.00
2023-04-10T00:19:40.278Z,109.00
2023-04-10T00:19:49.958Z,109.00
2023-04-10T00:20:50.549Z,109.00
2023-04-10T00:21:51.305Z,109.00
2023-04-10T00:22:52.127Z,109.00
2023-04-10T00:23:53.149Z,109.00
2023-04-10T00:24:53.662Z,109.00
2023-04-10T00:25:54.527Z,109.00
2023-04-10T00:26:55.262Z,109.00
2023-04-10T00:27:55.996Z,109.00
2023-04-10T00:28:56.801Z,109.00
2023-04-10T00:29:57.620Z,109.00
2023-04-10T00:30:58.340Z,109.00
2023-04-10T00:31:06.996Z,109.00
2023-04-10T00:32:07.642Z,109.00
2023-04-10T00:33:08.269Z,109.00
2023-04-10T00:34:08.990Z,109.00
2023-04-10T00:35:09.641Z,109.00
2023-04-10T00:36:10.565Z,109.00
2023-04-10T00:37:11.164Z,109.00
2023-04-10T00:38:11.972Z,109.00
2023-04-10T00:39:12.700Z,109.00
2023-04-10T00:40:13.448Z,109.00
2023-04-10T00:41:14.309Z,109.00
2023-04-10T00:42:15.151Z,109.00
2023-04-10T00:42:24.820Z,109.00
2023-04-10T00:43:24.535Z,109.00
2023-04-10T00:44:25.296Z,109.00
2023-04-10T00:45:25.971Z,109.00
2023-04-10T00:46:26.770Z,109.00
2023-04-10T00:47:27.602Z,109.00
2023-04-10T00:48:28.207Z,109.00
2023-04-10T00:49:28.883Z,109.00
2023-04-10T00:50:29.728Z,109.00
2023-04-10T00:51:30.488Z,109.00
2023-04-10T00:52:31.323Z,109.00
2023-04-10T00:53:32.021Z,109.00
2023-04-10T00:53:41.699Z,109.00
2023-04-10T00:54:42.353Z,109.00
2023-04-10T00:55:42.430Z,109.00
2023-04-10T00:56:43.244Z,109.00
2023-04-10T00:57:44.031Z,109.00
2023-04-10T00:58:44.775Z,109.00
2023-04-10T00:59:45.429Z,109.00
2023-04-10T01:00:46.120Z,109.00
2023-04-10T01:01:47.070Z,109.00
2023-04-10T01:02:47.900Z,109.00
2023-04-10T01:03:48.662Z,109.00
2023-04-10T01:04:49.362Z,109.00
2023-04-10T01:04:58.610Z,109.00
2023-04-10T01:05:59.260Z,109.00
2023-04-10T01:07:00.032Z,109.00
2023-04-10T01:08:00.801Z,109.00
2023-04-10T01:09:01.431Z,109.00
2023-04-10T01:10:02.297Z,109.00
2023-04-10T01:11:03.024Z,109.00
2023-04-10T01:12:03.626Z,109.00
2023-04-10T01:13:04.401Z,109.00
2023-04-10T01:14:05.077Z,109.00
2023-04-10T01:15:05.832Z,109.00
2023-04-10T01:15:15.051Z,109.00
2023-04-10T01:16:15.072Z,109.00
2023-04-10T01:17:15.124Z,109.00
2023-04-10T01:18:16.024Z,109.00
2023-04-10T01:19:16.837Z,109.00
2023-04-10T01:20:17.696Z,109.00
2023-04-10T01:21:18.477Z,109.00
2023-04-10T01:22:19.331Z,109.00
2023-04-10T01:23:20.216Z,109.00
2023-04-10T01:24:21.036Z,109.00
2023-04-10T01:25:21.847Z,109.00
2023-04-10T01:26:22.614Z,109.00
2023-04-10T01:26:32.297Z,109.00
2023-04-10T01:27:33.142Z,109.00
2023-04-10T01:28:33.823Z,109.00
2023-04-10T01:29:34.575Z,109.00
2023-04-10T01:30:35.384Z,109.00
2023-04-10T01:31:36.109Z,109.00
2023-04-10T01:32:37.056Z,109.00
2023-04-10T01:33:37.890Z,109.00
2023-04-10T01:34:38.597Z,109.00
2023-04-10T01:35:39.438Z,109.00
2023-04-10T01:36:40.102Z,109.00
2023-04-10T01:37:40.950Z,109.00
2023-04-10T01:37:49.711Z,109.00
2023-04-10T01:38:50.248Z,109.00
2023-04-10T01:39:51.035Z,109.00
2023-04-10T01:40:51.799Z,109.00
2023-04-10T01:41:52.790Z,109.00
2023-04-10T01:42:53.607Z,109.00
2023-04-10T01:43:54.747Z,109.00
2023-04-10T01:44:55.302Z,109.00
2023-04-10T01:45:56.083Z,109.00
2023-04-10T01:47:04.253Z,109.00
2023-04-10T01:47:57.125Z,109.00
2023-04-10T01:48:05.848Z,109.00
2023-04-10T01:49:06.019Z,109.00
2023-04-10T01:50:06.917Z,109.00
2023-04-10T01:51:07.803Z,109.00
2023-04-10T01:52:08.461Z,109.00
2023-04-10T01:53:08.604Z,109.00
2023-04-10T01:54:09.314Z,109.00
2023-04-10T01:55:10.052Z,109.00
2023-04-10T01:56:10.850Z,109.00
2023-04-10T01:57:11.628Z,109.00
2023-04-10T01:58:12.512Z,109.00
2023-04-10T01:59:13.179Z,109.00
2023-04-10T01:59:21.830Z,109.00
2023-04-10T02:00:22.249Z,109.00
2023-04-10T02:01:29.886Z,109.00
2023-04-10T02:02:23.154Z,109.00
2023-04-10T02:03:24.125Z,109.00
2023-04-10T02:04:24.921Z,109.00
2023-04-10T02:05:25.601Z,109.00
2023-04-10T02:06:26.372Z,109.00
2023-04-10T02:07:26.390Z,109.00
2023-04-10T02:08:27.211Z,109.00
2023-04-10T02:09:28.014Z,109.00
2023-04-10T02:09:37.205Z,109.00
2023-04-10T02:10:37.360Z,109.00
2023-04-10T02:11:38.091Z,109.00
2023-04-10T02:12:38.933Z,109.00
2023-04-10T02:13:39.888Z,109.00
2023-04-10T02:14:40.738Z,109.00
2023-04-10T02:15:41.572Z,109.00
2023-04-10T02:16:41.573Z,109.00
2023-04-10T02:17:42.330Z,109.00
2023-04-10T02:18:43.158Z,109.00
2023-04-10T02:19:43.918Z,109.00
2023-04-10T02:20:43.914Z,109.00
2023-04-10T02:20:53.098Z,109.00
2023-04-10T02:21:53.128Z,109.00
2023-04-10T02:22:53.172Z,109.00
2023-04-10T02:23:54.241Z,109.00
2023-04-10T02:24:54.741Z,109.00
2023-04-10T02:25:55.578Z,109.00
2023-04-10T02:26:56.331Z,109.00
2023-04-10T02:27:57.181Z,109.00
2023-04-10T02:28:57.955Z,109.00
2023-04-10T02:29:58.757Z,109.00
2023-04-10T02:30:59.684Z,109.00
2023-04-10T02:31:08.448Z,109.00
2023-04-10T02:32:20.087Z,109.00
2023-04-10T02:33:08.680Z,109.00
2023-04-10T02:34:09.524Z,109.00
2023-04-10T02:35:10.379Z,109.00
2023-04-10T02:36:11.261Z,109.00
2023-04-10T02:37:11.419Z,109.00
2023-04-10T02:38:12.166Z,109.00
2023-04-10T02:39:13.056Z,109.00
2023-04-10T02:40:13.813Z,109.00
2023-04-10T02:41:14.573Z,109.00
2023-04-10T02:41:23.268Z,109.00
2023-04-10T02:42:23.640Z,109.00
2023-04-10T02:43:24.541Z,109.00
2023-04-10T02:44:25.347Z,109.00
2023-04-10T02:45:26.120Z,109.00
2023-04-10T02:46:26.912Z,109.00
2023-04-10T02:47:27.790Z,109.00
2023-04-10T02:48:27.785Z,109.00
2023-04-10T02:49:27.994Z,109.00
2023-04-10T02:50:28.804Z,109.00
2023-04-10T02:51:28.998Z,109.00
2023-04-10T02:52:29.314Z,109.00
2023-04-10T02:52:37.981Z,109.00
2023-04-10T02:53:38.221Z,109.00
2023-04-10T02:54:38.974Z,109.00
2023-04-10T02:55:39.121Z,109.00
2023-04-10T02:56:39.869Z,109.00
2023-04-10T02:57:40.670Z,109.00
2023-04-10T02:58:41.418Z,109.00
2023-04-10T02:59:42.261Z,109.00
2023-04-10T03:00:43.016Z,109.00
2023-04-10T03:01:45.070Z,109.00
2023-04-10T03:02:45.320Z,109.00
2023-04-10T03:03:45.630Z,109.00
2023-04-10T03:03:54.727Z,109.00
2023-04-10T03:04:54.752Z,109.00
2023-04-10T03:05:55.313Z,109.00
2023-04-10T03:06:56.085Z,109.00
2023-04-10T03:07:56.823Z,109.00
2023-04-10T03:08:57.587Z,109.00
2023-04-10T03:09:58.495Z,109.00
2023-04-10T03:10:59.421Z,109.00
2023-04-10T03:12:00.107Z,109.00
2023-04-10T03:13:00.845Z,109.00
2023-04-10T03:14:01.608Z,109.00
2023-04-10T03:15:02.267Z,109.00
2023-04-10T03:15:11.449Z,109.00
2023-04-10T03:16:12.039Z,109.00
2023-04-10T03:17:14.563Z,109.00
2023-04-10T03:18:12.187Z,109.00
2023-04-10T03:19:13.144Z,109.00
2023-04-10T03:20:13.995Z,109.00
2023-04-10T03:21:14.745Z,109.00
2023-04-10T03:22:15.484Z,109.00
2023-04-10T03:23:16.386Z,109.00
2023-04-10T03:24:17.119Z,109.00
2023-04-10T03:25:17.857Z,109.00
2023-04-10T03:26:18.562Z,109.00
2023-04-10T03:26:27.274Z,109.00
2023-04-10T03:27:27.658Z,109.00
2023-04-10T03:28:28.298Z,109.00
2023-04-10T03:29:29.111Z,109.00
2023-04-10T03:30:29.908Z,109.00
2023-04-10T03:31:34.673Z,109.00
2023-04-10T03:32:30.677Z,109.00
2023-04-10T03:33:31.417Z,109.00
2023-04-10T03:34:32.281Z,109.00
2023-04-10T03:35:33.145Z,109.00
2023-04-10T03:36:33.792Z,109.00
2023-04-10T03:37:34.508Z,109.00
2023-04-10T03:37:43.677Z,109.00
2023-04-10T03:38:44.402Z,109.00
2023-04-10T03:39:45.061Z,109.00
2023-04-10T03:40:45.874Z,109.00
2023-04-10T03:41:46.572Z,109.00
2023-04-10T03:42:47.308Z,109.00
2023-04-10T03:43:48.037Z,109.00
2023-04-10T03:44:48.868Z,109.00
2023-04-10T03:45:49.596Z,109.00
2023-04-10T03:46:50.530Z,109.00
2023-04-10T03:47:51.226Z,109.00
2023-04-10T03:48:00.003Z,109.00
2023-04-10T03:49:00.165Z,109.00
2023-04-10T03:50:01.065Z,109.00
2023-04-10T03:51:01.908Z,109.00
2023-04-10T03:52:02.505Z,109.00
2023-04-10T03:53:03.235Z,109.00
2023-04-10T03:54:04.031Z,109.00
2023-04-10T03:55:04.235Z,109.00
2023-04-10T03:56:04.509Z,109.00
2023-04-10T03:57:05.329Z,109.00
2023-04-10T03:58:06.140Z,109.00
2023-04-10T03:58:14.844Z,109.00
2023-04-10T03:59:15.596Z,109.00
2023-04-10T04:00:15.663Z,109.00
2023-04-10T04:01:15.773Z,109.00
2023-04-10T04:02:16.604Z,109.00
2023-04-10T04:03:17.415Z,109.00
2023-04-10T04:04:18.211Z,109.00
2023-04-10T04:05:18.224Z,109.00
2023-04-10T04:06:18.352Z,109.00
2023-04-10T04:07:19.253Z,109.00
2023-04-10T04:08:20.016Z,109.00
2023-04-10T04:09:20.956Z,109.00
2023-04-10T04:09:29.660Z,109.00
2023-04-10T04:10:29.757Z,109.00
2023-04-10T04:11:30.369Z,109.00
2023-04-10T04:12:31.091Z,109.00
2023-04-10T04:13:32.070Z,109.00
2023-04-10T04:14:32.891Z,109.00
2023-04-10T04:15:33.062Z,109.00
2023-04-10T04:16:33.873Z,109.00
2023-04-10T04:17:34.559Z,109.00
2023-04-10T04:18:35.193Z,109.00
2023-04-10T04:19:35.929Z,109.00
2023-04-10T04:20:36.589Z,109.00
2023-04-10T04:20:46.295Z,109.00
2023-04-10T04:21:46.571Z,109.00
2023-04-10T04:22:47.261Z,109.00
2023-04-10T04:23:48.218Z,109.00
2023-04-10T04:24:48.807Z,109.00
2023-04-10T04:25:49.723Z,109.00
2023-04-10T04:26:50.453Z,109.00
2023-04-10T04:27:51.147Z,109.00
2023-04-10T04:28:51.843Z,109.00
2023-04-10T04:29:52.573Z,109.00
2023-04-10T04:30:53.411Z,109.00
2023-04-10T04:31:54.142Z,109.00
2023-04-10T04:32:02.808Z,109.00
2023-04-10T04:33:02.855Z,109.00
2023-04-10T04:34:03.847Z,109.00
2023-04-10T04:35:04.749Z,109.00
2023-04-10T04:36:05.733Z,109.00
2023-04-10T04:37:05.821Z,109.00
2023-04-10T04:38:06.056Z,109.00
2023-04-10T04:39:06.921Z,109.00
2023-04-10T04:40:07.875Z,109.00
2023-04-10T04:41:08.818Z,109.00
2023-04-10T04:42:09.799Z,109.00
2023-04-10T04:43:10.609Z,109.00
2023-04-10T04:43:19.781Z,109.00
2023-04-10T04:44:20.072Z,109.00
2023-04-10T04:45:20.152Z,109.00
2023-04-10T04:46:21.019Z,109.00
2023-04-10T04:47:21.224Z,109.00
2023-04-10T04:48:21.852Z,109.00
2023-04-10T04:49:22.588Z,109.00
2023-04-10T04:50:23.316Z,109.00
2023-04-10T04:51:24.008Z,109.00
2023-04-10T04:52:24.965Z,109.00
2023-04-10T04:53:25.596Z,109.00
2023-04-10T04:54:26.310Z,109.00
2023-04-10T04:54:35.430Z,109.00
2023-04-10T04:55:36.332Z,109.00
2023-04-10T04:56:37.187Z,109.00
2023-04-10T04:57:37.969Z,109.00
2023-04-10T04:58:38.695Z,109.00
2023-04-10T04:59:39.435Z,109.00
2023-04-10T05:00:40.172Z,109.00
2023-04-10T05:01:41.112Z,109.00
2023-04-10T05:02:41.933Z,109.00
2023-04-10T05:03:42.805Z,109.00
2023-04-10T05:04:43.501Z,109.00
2023-04-10T05:04:52.230Z,109.00
2023-04-10T05:05:52.395Z,109.00
2023-04-10T05:06:52.642Z,109.00
2023-04-10T05:07:53.596Z,109.00
2023-04-10T05:08:54.380Z,109.00
2023-04-10T05:09:54.653Z,109.00
2023-04-10T05:10:55.601Z,109.00
2023-04-10T05:11:55.615Z,109.00
2023-04-10T05:12:55.785Z,109.00
2023-04-10T05:13:56.797Z,109.00
2023-04-10T05:14:57.591Z,109.00
2023-04-10T05:15:58.392Z,109.00
2023-04-10T05:17:01.042Z,109.00
2023-04-10T05:17:12.545Z,109.00
2023-04-10T05:18:13.402Z,109.00
2023-04-10T05:19:15.266Z,109.00
2023-04-10T05:20:15.136Z,109.00
2023-04-10T05:21:15.134Z,109.00
2023-04-10T05:22:18.523Z,109.00
2023-04-10T05:23:16.702Z,109.00
2023-04-10T05:24:17.437Z,109.00
2023-04-10T05:25:18.258Z,109.00
2023-04-10T05:26:18.961Z,109.00
2023-04-10T05:27:19.348Z,109.00
2023-04-10T05:28:20.217Z,109.00
2023-04-10T05:28:32.392Z,109.00
2023-04-10T05:29:33.249Z,109.00
2023-04-10T05:31:07.277Z,109.00
2023-04-10T05:32:35.750Z,109.00
2023-04-10T05:33:35.763Z,109.00
2023-04-10T05:34:35.840Z,109.00
2023-04-10T05:35:36.737Z,109.00
2023-04-10T05:36:37.630Z,109.00
2023-04-10T05:37:37.627Z,109.00
2023-04-10T05:38:37.856Z,109.00
2023-04-10T05:39:38.671Z,109.00
2023-04-10T05:40:39.474Z,109.00
2023-04-10T05:41:40.293Z,109.00
2023-04-10T05:42:41.064Z,109.00
2023-04-10T05:43:41.793Z,109.00
2023-04-10T05:43:51.013Z,109.00
2023-04-10T05:44:52.913Z,109.00
2023-04-10T05:45:52.891Z,109.00
2023-04-10T05:46:53.958Z,109.00
2023-04-10T05:47:54.771Z,109.00
2023-04-10T05:48:55.130Z,109.00
2023-04-10T05:49:55.049Z,109.00
2023-04-10T05:50:55.759Z,109.00
2023-04-10T05:51:56.490Z,109.00
2023-04-10T05:52:57.308Z,109.00
2023-04-10T05:53:58.075Z,109.00
2023-04-10T05:54:06.784Z,109.00
2023-04-10T05:55:07.675Z,109.00
2023-04-10T05:56:08.646Z,109.00
2023-04-10T05:57:09.524Z,109.00
2023-04-10T05:58:09.615Z,109.00
2023-04-10T05:59:09.876Z,109.00
2023-04-10T06:00:09.932Z,109.00
2023-04-10T06:01:09.952Z,109.00
2023-04-10T06:02:10.053Z,109.00
2023-04-10T06:03:10.418Z,109.00
2023-04-10T06:04:10.680Z,109.00
2023-04-10T06:05:11.431Z,109.00
2023-04-10T06:05:20.173Z,109.00
2023-04-10T06:06:20.279Z,109.00
2023-04-10T06:07:20.349Z,109.00
2023-04-10T06:08:21.304Z,109.00
2023-04-10T06:09:22.058Z,109.00
2023-04-10T06:10:22.820Z,109.00
2023-04-10T06:11:23.614Z,109.00
2023-04-10T06:12:24.465Z,109.00
2023-04-10T06:13:25.269Z,109.00
2023-04-10T06:14:25.549Z,109.00
2023-04-10T06:15:26.247Z,109.00
2023-04-10T06:16:27.127Z,109.00
2023-04-10T06:16:35.858Z,109.00
2023-04-10T06:17:36.106Z,109.00
2023-04-10T06:18:36.193Z,109.00
2023-04-10T06:19:36.293Z,109.00
2023-04-10T06:20:36.328Z,109.00
2023-04-10T06:21:36.429Z,109.00
2023-04-10T06:22:37.361Z,109.00
2023-04-10T06:23:38.204Z,109.00
2023-04-10T06:24:38.256Z,109.00
2023-04-10T06:25:39.181Z,109.00
2023-04-10T06:26:39.949Z,109.00
2023-04-10T06:27:40.138Z,109.00
2023-04-10T06:27:51.809Z,109.00
2023-04-10T06:28:52.965Z,109.00
2023-04-10T06:29:52.885Z,109.00
2023-04-10T06:30:52.858Z,109.00
2023-04-10T06:31:54.022Z,109.00
2023-04-10T06:32:53.879Z,109.00
2023-04-10T06:33:53.900Z,109.00
2023-04-10T06:34:53.907Z,109.00
2023-04-10T06:35:54.902Z,109.00
2023-04-10T06:36:54.956Z,109.00
2023-04-10T06:37:55.791Z,109.00
2023-04-10T06:38:56.765Z,109.00
2023-04-10T06:39:05.495Z,109.00
2023-04-10T06:40:05.756Z,109.00
2023-04-10T06:41:06.008Z,109.00
2023-04-10T06:42:06.093Z,109.00
2023-04-10T06:43:06.811Z,109.00
2023-04-10T06:44:07.510Z,109.00
2023-04-10T06:45:07.561Z,109.00
2023-04-10T06:46:07.751Z,109.00
2023-04-10T06:47:08.603Z,109.00
2023-04-10T06:48:09.460Z,109.00
2023-04-10T06:49:10.332Z,109.00
2023-04-10T06:49:20.970Z,109.00
2023-04-10T06:50:21.156Z,109.00
2023-04-10T06:51:22.142Z,109.00
2023-04-10T06:52:22.946Z,109.00
2023-04-10T06:53:23.889Z,109.00
2023-04-10T06:54:23.992Z,109.00
2023-04-10T06:55:24.120Z,109.00
2023-04-10T06:56:24.334Z,109.00
2023-04-10T06:57:24.386Z,109.00
2023-04-10T06:58:24.561Z,109.00
2023-04-10T06:59:24.635Z,109.00
2023-04-10T06:59:33.355Z,109.00
2023-04-10T07:00:33.503Z,109.00
2023-04-10T07:01:33.759Z,109.00
2023-04-10T07:02:33.801Z,109.00
2023-04-10T07:03:34.156Z,109.00
2023-04-10T07:04:35.138Z,108.89
2023-04-10T07:05:36.013Z,108.75
2023-04-10T07:06:36.478Z,108.50
2023-04-10T07:07:37.187Z,107.28
2023-04-10T07:08:37.299Z,104.40
2023-04-10T07:09:38.073Z,105.18
2023-04-10T07:09:46.791Z,103.02
2023-04-10T07:10:47.306Z,104.17
2023-04-10T07:11:48.128Z,109.00
2023-04-10T07:12:48.127Z,109.00
2023-04-10T07:13:48.264Z,104.72
2023-04-10T07:14:49.025Z,101.43
2023-04-10T07:15:49.741Z,99.49
2023-04-10T07:16:49.838Z,99.06
2023-04-10T07:17:50.578Z,98.24
2023-04-10T07:18:50.723Z,96.71
2023-04-10T07:19:50.961Z,93.31
2023-04-10T07:20:51.662Z,93.16
2023-04-10T07:21:00.392Z,89.29
2023-04-10T07:22:00.440Z,89.54
2023-04-10T07:23:00.894Z,89.79
2023-04-10T07:24:01.625Z,88.51
2023-04-10T07:25:02.430Z,85.22
2023-04-10T07:26:03.186Z,85.35
2023-04-10T07:27:04.043Z,82.44
2023-04-10T07:28:04.363Z,80.99
2023-04-10T07:29:05.082Z,82.06
2023-04-10T07:30:06.010Z,76.20
2023-04-10T07:31:06.892Z,78.65
2023-04-10T07:32:07.874Z,77.38
2023-04-10T07:32:26.391Z,75.58
2023-04-10T07:33:26.878Z,75.80
2023-04-10T07:34:27.691Z,83.40
2023-04-10T07:35:28.483Z,80.48
2023-04-10T07:36:29.401Z,81.76
2023-04-10T07:37:30.208Z,83.55
2023-04-10T07:38:30.914Z,79.82
2023-04-10T07:39:31.656Z,81.65
2023-04-10T07:40:32.448Z,80.49
2023-04-10T07:41:33.300Z,78.42
2023-04-10T07:42:33.357Z,73.43
2023-04-10T07:42:42.134Z,71.32
2023-04-10T07:43:42.127Z,71.38
2023-04-10T07:44:42.853Z,69.47
2023-04-10T07:45:43.754Z,67.09
2023-04-10T07:46:44.430Z,67.80
2023-04-10T07:47:45.357Z,70.03
2023-04-10T07:48:46.038Z,74.76
2023-04-10T07:49:46.777Z,69.46
2023-04-10T07:50:47.546Z,65.47
2023-04-10T07:51:48.280Z,61.16
2023-04-10T07:52:49.068Z,61.44
2023-04-10T07:52:57.867Z,61.94
2023-04-10T07:53:58.819Z,62.29
2023-04-10T07:54:59.512Z,61.92
2023-04-10T07:56:00.290Z,61.49
2023-04-10T07:57:00.982Z,58.68
2023-04-10T07:58:02.035Z,57.08
2023-04-10T07:59:02.698Z,56.28
2023-04-10T08:00:03.425Z,56.63
2023-04-10T08:01:04.233Z,56.12
2023-04-10T08:02:05.223Z,56.13
2023-04-10T08:03:05.612Z,55.18
2023-04-10T08:04:06.318Z,55.47
2023-04-10T08:04:15.087Z,53.23
2023-04-10T08:05:15.558Z,53.38
2023-04-10T08:06:16.322Z,52.83
2023-04-10T08:07:17.254Z,51.67
2023-04-10T08:08:18.198Z,51.64
2023-04-10T08:09:19.175Z,52.74
2023-04-10T08:10:19.975Z,51.89
2023-04-10T08:11:20.088Z,52.03
2023-04-10T08:12:20.763Z,51.42
2023-04-10T08:13:21.714Z,49.44
2023-04-10T08:14:22.462Z,49.38
2023-04-10T08:14:31.213Z,50.04
2023-04-10T08:15:31.212Z,49.98
2023-04-10T08:16:31.987Z,50.87
2023-04-10T08:17:32.865Z,52.13
2023-04-10T08:18:33.628Z,50.31
2023-04-10T08:19:34.430Z,49.14
2023-04-10T08:20:35.206Z,47.86
2023-04-10T08:21:36.136Z,48.38
2023-04-10T08:22:36.981Z,50.20
2023-04-10T08:23:37.843Z,51.09
2023-04-10T08:24:38.776Z,51.73
2023-04-10T08:25:39.573Z,53.09
2023-04-10T08:25:50.277Z,51.77
2023-04-10T08:26:50.487Z,52.31
2023-04-10T08:27:50.839Z,53.05
2023-04-10T08:28:50.913Z,54.95
2023-04-10T08:29:51.604Z,57.57
2023-04-10T08:30:52.414Z,56.94
2023-04-10T08:31:53.313Z,55.98
2023-04-10T08:32:54.168Z,57.87
2023-04-10T08:33:55.252Z,61.14
2023-04-10T08:34:55.697Z,60.69
2023-04-10T08:35:56.448Z,59.13
2023-04-10T08:36:57.177Z,59.51
2023-04-10T08:37:05.887Z,61.03
2023-04-10T08:39:08.496Z,59.04
2023-04-10T08:40:09.384Z,59.80
2023-04-10T08:41:09.125Z,61.94
2023-04-10T08:42:09.735Z,60.35
2023-04-10T08:43:10.541Z,64.19
2023-04-10T08:44:11.319Z,62.67
2023-04-10T08:45:12.067Z,62.62
2023-04-10T08:46:12.821Z,64.44
2023-04-10T08:47:13.583Z,64.22
2023-04-10T08:48:14.428Z,65.71
2023-04-10T08:48:23.601Z,62.58
2023-04-10T08:49:23.613Z,62.45
2023-04-10T08:50:24.340Z,59.53
2023-04-10T08:51:26.416Z,62.15
2023-04-10T08:52:25.961Z,60.45
2023-04-10T08:53:26.611Z,57.40
2023-04-10T08:54:27.396Z,58.40
2023-04-10T08:55:28.063Z,60.16
2023-04-10T08:56:28.801Z,61.34
2023-04-10T08:57:29.557Z,61.63
2023-04-10T08:58:30.312Z,64.24
2023-04-10T08:58:39.001Z,60.20
2023-04-10T08:59:39.391Z,60.00
2023-04-10T09:00:40.235Z,60.96
2023-04-10T09:01:41.182Z,61.19
2023-04-10T09:02:42.841Z,60.22
2023-04-10T09:03:42.579Z,60.20
2023-04-10T09:04:43.471Z,58.04
2023-04-10T09:05:44.191Z,59.78
2023-04-10T09:06:44.999Z,58.99
2023-04-10T09:07:45.721Z,60.93
2023-04-10T09:08:46.458Z,59.67
2023-04-10T09:08:55.667Z,60.23
2023-04-10T09:09:55.707Z,60.15
2023-04-10T09:10:56.540Z,60.14
2023-04-10T09:11:57.151Z,60.66
2023-04-10T09:12:57.895Z,59.91
2023-04-10T09:13:58.601Z,56.26
2023-04-10T09:14:59.399Z,54.94
2023-04-10T09:16:00.245Z,54.53
2023-04-10T09:17:01.040Z,55.18
2023-04-10T09:18:02.017Z,57.56
2023-04-10T09:19:03.393Z,57.37
2023-04-10T09:19:14.342Z,57.87
2023-04-10T09:20:15.065Z,57.67
2023-04-10T09:21:15.783Z,58.74
2023-04-10T09:22:16.603Z,59.13
2023-04-10T09:23:17.446Z,59.15
2023-04-10T09:24:18.228Z,58.78
2023-04-10T09:25:18.988Z,59.23
2023-04-10T09:26:19.779Z,56.65
2023-04-10T09:27:20.733Z,57.47
2023-04-10T09:28:21.402Z,57.36
2023-04-10T09:29:22.210Z,56.30
2023-04-10T09:29:30.928Z,53.77
2023-04-10T09:30:31.249Z,53.89
2023-04-10T09:31:32.133Z,57.54
2023-04-10T09:32:32.987Z,58.60
2023-04-10T09:33:33.796Z,57.82
2023-04-10T09:34:34.600Z,57.72
2023-04-10T09:35:35.338Z,56.41
2023-04-10T09:36:36.194Z,53.84
2023-04-10T09:37:36.650Z,56.91
2023-04-10T09:38:37.426Z,56.79
2023-04-10T09:39:38.176Z,56.04
2023-04-10T09:40:39.171Z,55.87
2023-04-10T09:40:48.417Z,56.55
2023-04-10T09:41:49.376Z,56.55
2023-04-10T09:42:50.152Z,56.33
2023-04-10T09:43:50.909Z,54.51
2023-04-10T09:44:51.720Z,54.52
2023-04-10T09:45:52.601Z,54.32
2023-04-10T09:46:53.709Z,53.20
2023-04-10T09:47:54.353Z,55.68
2023-04-10T09:48:55.043Z,53.89
2023-04-10T09:49:55.817Z,56.69
2023-04-10T09:50:56.601Z,57.61
2023-04-10T09:51:57.515Z,55.42
2023-04-10T09:52:06.261Z,53.97
2023-04-10T09:53:06.327Z,53.63
2023-04-10T09:54:07.191Z,53.61
2023-04-10T09:55:07.943Z,55.16
2023-04-10T09:56:08.826Z,55.65
2023-04-10T09:57:09.623Z,55.48
2023-04-10T09:58:10.477Z,56.66
2023-04-10T09:59:11.164Z,58.27
2023-04-10T10:00:11.834Z,54.77
2023-04-10T10:01:12.770Z,54.07
2023-04-10T10:02:12.986Z,57.82
2023-04-10T10:03:13.776Z,55.42
2023-04-10T10:03:22.495Z,55.68
2023-04-10T10:04:22.551Z,55.60
2023-04-10T10:05:23.321Z,56.57
2023-04-10T10:06:23.542Z,57.49
2023-04-10T10:07:23.722Z,57.42
2023-04-10T10:08:24.359Z,57.55
2023-04-10T10:09:25.209Z,57.25
2023-04-10T10:10:25.871Z,57.89
2023-04-10T10:11:26.741Z,55.70
2023-04-10T10:12:27.519Z,55.61
2023-04-10T10:13:28.400Z,56.34
2023-04-10T10:13:38.115Z,57.85
2023-04-10T10:14:39.376Z,57.94
2023-04-10T10:15:39.296Z,57.25
2023-04-10T10:16:40.214Z,58.98
2023-04-10T10:17:40.972Z,58.38
2023-04-10T10:18:41.679Z,59.48
2023-04-10T10:19:42.668Z,60.29
2023-04-10T10:20:43.470Z,59.84
2023-04-10T10:21:44.225Z,57.46
2023-04-10T10:22:44.886Z,58.70
2023-04-10T10:23:45.710Z,58.71
2023-04-10T10:23:54.801Z,58.26
2023-04-10T10:24:55.567Z,57.33
2023-04-10T10:25:56.322Z,60.19
2023-04-10T10:26:57.315Z,62.61
2023-04-10T10:27:57.996Z,61.39
2023-04-10T10:28:58.673Z,60.67
2023-04-10T10:30:00.954Z,58.96
2023-04-10T10:31:00.241Z,58.72
2023-04-10T10:32:01.092Z,61.19
2023-04-10T10:33:01.891Z,60.55
2023-04-10T10:34:02.807Z,63.28
2023-04-10T10:34:14.142Z,63.61
2023-04-10T10:35:14.228Z,61.25
2023-04-10T10:36:14.753Z,59.21
2023-04-10T10:37:15.460Z,59.23
2023-04-10T10:38:16.203Z,62.36
2023-04-10T10:39:16.964Z,61.48
2023-04-10T10:40:17.848Z,63.64
2023-04-10T10:41:18.674Z,63.26
2023-04-10T10:42:19.588Z,63.91
2023-04-10T10:43:19.987Z,61.65
2023-04-10T10:44:20.768Z,58.48
2023-04-10T10:45:21.779Z,60.41
2023-04-10T10:45:30.533Z,61.85
2023-04-10T10:46:31.211Z,62.38
2023-04-10T10:47:31.317Z,62.93
2023-04-10T10:48:31.953Z,60.30
2023-04-10T10:49:32.667Z,60.09
2023-04-10T10:50:33.461Z,64.46
2023-04-10T10:51:34.285Z,66.02
2023-04-10T10:52:34.471Z,65.38
2023-04-10T10:53:35.244Z,60.39
2023-04-10T10:54:40.387Z,59.75
2023-04-10T10:55:36.954Z,62.60
2023-04-10T10:56:37.272Z,63.46
2023-04-10T10:57:38.071Z,61.89
2023-04-10T10:57:49.760Z,61.42
2023-04-10T10:58:49.720Z,61.07
2023-04-10T10:59:50.574Z,59.96
2023-04-10T11:00:51.495Z,59.44
2023-04-10T11:01:52.448Z,55.13
2023-04-10T11:02:52.623Z,55.63
2023-04-10T11:03:53.231Z,55.38
2023-04-10T11:04:54.049Z,54.73
2023-04-10T11:05:54.063Z,58.24
2023-04-10T11:06:54.909Z,58.67
2023-04-10T11:07:55.837Z,57.82
2023-04-10T11:08:56.325Z,57.07
2023-04-10T11:09:04.901Z,58.06
2023-04-10T11:10:04.973Z,58.07
2023-04-10T11:11:05.758Z,56.79
2023-04-10T11:12:06.452Z,57.54
2023-04-10T11:13:06.625Z,58.40
2023-04-10T11:14:07.359Z,58.59
2023-04-10T11:15:08.204Z,58.34
2023-04-10T11:16:08.993Z,59.50
2023-04-10T11:17:09.760Z,56.61
2023-04-10T11:18:09.894Z,54.80
2023-04-10T11:19:15.397Z,55.32
2023-04-10T11:20:11.533Z,56.27
2023-04-10T11:20:20.239Z,57.24
2023-04-10T11:21:20.921Z,57.32
2023-04-10T11:22:21.297Z,56.73
2023-04-10T11:23:21.339Z,57.22
2023-04-10T11:24:21.382Z,56.16
2023-04-10T11:25:22.398Z,55.27
2023-04-10T11:26:23.787Z,54.63
2023-04-10T11:27:22.956Z,54.51
2023-04-10T11:28:23.899Z,55.85
2023-04-10T11:29:24.093Z,56.19
2023-04-10T11:30:24.116Z,57.06
2023-04-10T11:31:24.532Z,54.97
2023-04-10T11:32:25.472Z,52.34
2023-04-10T11:32:38.105Z,55.05
2023-04-10T11:33:38.854Z,55.13
2023-04-10T11:34:39.839Z,52.90
2023-04-10T11:35:39.959Z,55.57
2023-04-10T11:36:40.686Z,51.99
2023-04-10T11:37:41.418Z,52.19
2023-04-10T11:38:42.610Z,52.85
2023-04-10T11:39:42.919Z,53.23
2023-04-10T11:40:43.725Z,50.94
2023-04-10T11:41:44.585Z,52.82
2023-04-10T11:42:45.325Z,52.95
2023-04-10T11:43:45.683Z,54.35
2023-04-10T11:43:55.412Z,54.78
2023-04-10T11:44:55.414Z,54.98
2023-04-10T11:45:56.625Z,54.17
2023-04-10T11:46:55.645Z,54.92
2023-04-10T11:47:56.588Z,51.08
2023-04-10T11:48:57.347Z,51.07
2023-04-10T11:49:58.189Z,52.44
2023-04-10T11:50:59.163Z,52.16
2023-04-10T11:51:59.951Z,53.41
2023-04-10T11:53:00.269Z,53.13